createdAt,value
2018-06-12T00:00:01.471Z,69.40
2018-06-12T00:02:30.004Z,69.40
2018-06-12T00:04:58.505Z,69.40
2018-06-12T00:07:27.053Z,69.40
2018-06-12T00:09:55.614Z,69.40
2018-06-12T00:12:24.162Z,69.40
2018-06-12T00:17:20.863Z,69.40
2018-06-12T00:19:49.439Z,69.40
2018-06-12T00:22:17.937Z,69.40
2018-06-12T00:24:46.534Z,70.70
2018-06-12T00:27:15.030Z,70.70
2018-06-12T00:29:43.566Z,70.20
2018-06-12T00:32:12.052Z,69.70
2018-06-12T00:34:40.590Z,70.10
2018-06-12T00:37:09.062Z,70.90
2018-06-12T00:39:37.577Z,70.40
2018-06-12T00:42:06.182Z,70.20
2018-06-12T00:44:34.720Z,70.30
2018-06-12T00:47:03.230Z,70.40
2018-06-12T00:49:31.757Z,70.70
2018-06-12T00:52:00.242Z,70.10
2018-06-12T00:54:28.777Z,70.60
2018-06-12T00:57:04.946Z,70.40
2018-06-12T00:59:33.698Z,69.70
2018-06-12T01:02:02.242Z,69.20
2018-06-12T01:04:30.802Z,69.10
2018-06-12T01:06:59.322Z,69.40
2018-06-12T01:09:27.826Z,69.10
2018-06-12T01:11:56.304Z,69.10
2018-06-12T01:14:24.788Z,69.10
2018-06-12T01:16:53.324Z,69.10
2018-06-12T01:19:21.776Z,69.70
2018-06-12T01:21:50.284Z,69.00
2018-06-12T01:24:18.786Z,71.70
2018-06-12T01:26:47.286Z,73.00
2018-06-12T01:29:16.970Z,72.30
2018-06-12T01:31:45.463Z,72.60
2018-06-12T01:34:13.921Z,71.40
2018-06-12T01:36:42.411Z,73.00
2018-06-12T01:39:10.880Z,72.90
2018-06-12T01:41:39.390Z,73.10
2018-06-12T01:44:07.854Z,72.80
2018-06-12T01:46:36.364Z,72.20
2018-06-12T01:49:04.906Z,73.50
2018-06-12T01:51:33.553Z,73.00
2018-06-12T01:54:02.023Z,72.80
2018-06-12T01:56:30.546Z,73.70
2018-06-12T01:58:58.998Z,73.80
2018-06-12T02:01:27.488Z,74.30
2018-06-12T02:03:55.954Z,75.20
2018-06-12T02:06:24.544Z,74.00
2018-06-12T02:09:11.991Z,74.80
2018-06-12T02:14:30.920Z,75.90
2018-06-12T02:16:59.395Z,76.30
2018-06-12T02:19:28.039Z,77.00
2018-06-12T02:21:56.561Z,75.80
2018-06-12T02:24:25.139Z,75.90
2018-06-12T02:26:53.617Z,77.00
2018-06-12T02:29:22.101Z,77.90
2018-06-12T02:31:50.580Z,77.70
2018-06-12T02:34:19.092Z,78.50
2018-06-12T02:36:47.576Z,77.90
2018-06-12T02:39:16.079Z,77.00
2018-06-12T02:41:44.605Z,77.00
2018-06-12T02:44:13.118Z,77.80
2018-06-12T02:49:09.803Z,77.30
2018-06-12T02:51:38.273Z,78.40
2018-06-12T02:54:06.736Z,74.70
2018-06-12T02:56:35.644Z,76.70
2018-06-12T02:59:04.112Z,75.70
2018-06-12T03:01:32.596Z,75.80
2018-06-12T03:04:01.062Z,75.60
2018-06-12T03:06:42.352Z,75.50
2018-06-12T03:09:10.818Z,76.30
2018-06-12T03:11:39.378Z,76.20
2018-06-12T03:14:07.869Z,75.80
2018-06-12T03:16:36.431Z,75.30
2018-06-12T03:19:06.633Z,75.00
2018-06-12T03:21:35.919Z,75.40
2018-06-12T03:24:04.654Z,76.20
2018-06-12T03:26:33.150Z,76.70
2018-06-12T03:29:01.635Z,78.60
2018-06-12T03:31:30.113Z,78.40
2018-06-12T03:33:58.573Z,79.50
2018-06-12T03:36:27.089Z,78.00
2018-06-12T03:38:55.560Z,77.70
2018-06-12T03:41:24.103Z,77.30
2018-06-12T03:43:52.572Z,77.90
2018-06-12T03:46:21.037Z,77.70
2018-06-12T03:48:49.915Z,77.00
2018-06-12T03:51:18.385Z,76.90
2018-06-12T03:53:46.924Z,76.60
2018-06-12T03:56:15.392Z,76.70
2018-06-12T03:58:43.958Z,76.20
2018-06-12T04:01:12.403Z,74.80
2018-06-12T04:03:40.891Z,73.50
2018-06-12T04:06:09.354Z,73.20
2018-06-12T04:08:37.850Z,73.60
2018-06-12T04:11:06.314Z,74.10
2018-06-12T04:13:34.863Z,74.50
2018-06-12T04:16:03.336Z,74.30
2018-06-12T04:18:31.850Z,73.60
2018-06-12T04:21:00.374Z,73.00
2018-06-12T04:23:28.902Z,73.90
2018-06-12T04:25:57.406Z,73.80
2018-06-12T04:28:26.247Z,72.10
2018-06-12T04:30:54.780Z,72.90
2018-06-12T04:33:23.228Z,72.10
2018-06-12T04:35:52.724Z,73.00
2018-06-12T04:38:21.318Z,73.90
2018-06-12T04:40:50.009Z,73.90
2018-06-12T04:43:18.521Z,73.90
2018-06-12T04:45:47.054Z,73.30
2018-06-12T04:48:15.587Z,72.50
2018-06-12T04:50:44.233Z,73.10
2018-06-12T04:53:12.750Z,73.50
2018-06-12T04:55:42.018Z,73.00
2018-06-12T04:58:10.499Z,74.10
2018-06-12T05:00:39.005Z,72.20
2018-06-12T05:03:07.495Z,72.80
2018-06-12T05:05:36.045Z,72.80
2018-06-12T05:08:04.904Z,72.10
2018-06-12T05:10:33.455Z,72.40
2018-06-12T05:13:03.332Z,72.30
2018-06-12T05:15:32.792Z,73.00
2018-06-12T05:18:01.349Z,72.70
2018-06-12T05:20:29.853Z,73.50
2018-06-12T05:23:00.124Z,73.60
2018-06-12T05:25:28.687Z,73.50
2018-06-12T05:27:57.163Z,73.10
2018-06-12T05:30:28.838Z,72.30
2018-06-12T05:32:57.381Z,72.40
2018-06-12T05:35:26.031Z,72.30
2018-06-12T05:37:54.562Z,72.30
2018-06-12T05:40:23.050Z,71.40
2018-06-12T05:42:51.547Z,72.10
2018-06-12T05:45:20.069Z,71.20
2018-06-12T05:47:48.553Z,72.10
2018-06-12T05:50:17.027Z,71.50
2018-06-12T05:52:45.552Z,71.80
2018-06-12T05:55:14.087Z,72.30
2018-06-12T05:57:42.557Z,71.20
2018-06-12T06:00:11.090Z,72.20
2018-06-12T06:02:39.583Z,71.40
2018-06-12T06:05:08.090Z,70.80
2018-06-12T06:07:36.555Z,71.00
2018-06-12T06:10:05.701Z,70.60
2018-06-12T06:12:34.178Z,70.70
2018-06-12T06:15:02.667Z,70.90
2018-06-12T06:17:31.158Z,71.20
2018-06-12T06:19:59.673Z,70.50
2018-06-12T06:22:28.177Z,71.20
2018-06-12T06:24:56.862Z,70.90
2018-06-12T06:27:25.346Z,70.20
2018-06-12T06:29:53.923Z,70.40
2018-06-12T06:32:22.369Z,70.50
2018-06-12T06:34:50.960Z,70.40
2018-06-12T06:37:19.374Z,70.00
2018-06-12T06:39:47.892Z,70.40
2018-06-12T06:42:16.351Z,69.40
2018-06-12T06:44:44.924Z,70.20
2018-06-12T06:47:13.403Z,72.30
2018-06-12T06:49:42.038Z,72.20
2018-06-12T06:52:12.147Z,73.20
2018-06-12T06:54:42.127Z,74.30
2018-06-12T06:57:10.659Z,72.30
2018-06-12T06:59:40.019Z,72.30
2018-06-12T07:02:08.510Z,72.40
2018-06-12T07:04:37.023Z,72.50
2018-06-12T07:07:05.564Z,71.30
2018-06-12T07:09:34.016Z,70.60
2018-06-12T07:14:30.691Z,69.90
2018-06-12T07:17:00.585Z,69.50
2018-06-12T07:19:29.126Z,70.10
2018-06-12T07:21:57.625Z,70.20
2018-06-12T07:24:26.154Z,69.90
2018-06-12T07:26:54.657Z,68.30
2018-06-12T07:29:23.161Z,68.70
2018-06-12T07:31:51.761Z,68.40
2018-06-12T07:34:20.241Z,68.40
2018-06-12T07:39:17.245Z,68.40
2018-06-12T07:41:45.750Z,69.00
2018-06-12T07:44:14.355Z,68.40
2018-06-12T07:46:42.923Z,68.60
2018-06-12T07:49:11.398Z,68.60
2018-06-12T07:51:39.932Z,68.70
2018-06-12T07:54:08.516Z,68.00
2018-06-12T07:56:37.046Z,67.60
2018-06-12T07:59:05.649Z,67.40
2018-06-12T08:04:02.519Z,67.80
2018-06-12T08:06:31.980Z,67.90
2018-06-12T08:09:00.501Z,67.40
2018-06-12T08:11:29.001Z,67.30
2018-06-12T08:13:57.519Z,67.10
2018-06-12T08:16:26.045Z,67.80
2018-06-12T08:18:55.249Z,66.80
2018-06-12T08:21:23.892Z,66.70
2018-06-12T08:23:52.422Z,66.70
2018-06-12T08:26:21.020Z,67.00
2018-06-12T08:28:49.494Z,66.40
2018-06-12T08:31:19.225Z,65.50
2018-06-12T08:33:47.701Z,65.60
2018-06-12T08:36:16.218Z,64.80
2018-06-12T08:38:44.690Z,63.70
2018-06-12T08:41:13.211Z,63.80
2018-06-12T08:43:41.738Z,64.10
2018-06-12T08:46:10.969Z,62.70
2018-06-12T08:48:41.123Z,62.00
2018-06-12T08:51:11.860Z,62.10
2018-06-12T08:53:45.865Z,62.00
2018-06-12T08:56:20.039Z,61.90
2018-06-12T08:58:48.559Z,62.10
2018-06-12T09:01:17.199Z,62.60
2018-06-12T09:03:45.691Z,61.90
2018-06-12T09:06:14.332Z,61.60
2018-06-12T09:08:43.689Z,62.30
2018-06-12T09:11:12.230Z,61.80
2018-06-12T09:13:40.778Z,62.20
2018-06-12T09:16:09.289Z,61.60
2018-06-12T09:18:37.802Z,62.10
2018-06-12T09:21:06.368Z,62.30
2018-06-12T09:23:34.821Z,62.30
2018-06-12T09:26:03.509Z,62.30
2018-06-12T09:28:32.053Z,62.50
2018-06-12T09:31:00.701Z,62.00
2018-06-12T09:33:29.246Z,62.10
2018-06-12T09:36:03.126Z,61.90
2018-06-12T09:38:31.638Z,62.20
2018-06-12T09:41:00.157Z,61.80
2018-06-12T09:43:28.738Z,61.90
2018-06-12T09:45:57.270Z,61.90
2018-06-12T09:48:25.783Z,61.90
2018-06-12T09:50:54.375Z,61.90
2018-06-12T09:53:22.976Z,61.80
2018-06-12T09:55:51.488Z,61.70
2018-06-12T09:58:19.999Z,61.80
2018-06-12T10:03:23.888Z,62.00
2018-06-12T10:05:52.451Z,61.90
2018-06-12T10:08:20.909Z,62.00
2018-06-12T10:10:49.443Z,61.90
2018-06-12T10:13:18.079Z,61.90
2018-06-12T10:15:46.628Z,61.80
2018-06-12T10:18:15.205Z,61.80
2018-06-12T10:20:43.974Z,61.70
2018-06-12T10:23:12.558Z,61.60
2018-06-12T10:25:41.139Z,61.60
2018-06-12T10:28:09.942Z,62.20
2018-06-12T10:30:38.563Z,61.60
2018-06-12T10:33:07.328Z,61.60
2018-06-12T10:35:35.846Z,61.70
2018-06-12T10:38:04.340Z,61.70
2018-06-12T10:40:32.931Z,61.70
2018-06-12T10:43:01.468Z,61.90
2018-06-12T10:48:01.598Z,62.00
2018-06-12T10:50:43.082Z,62.00
2018-06-12T10:53:11.565Z,61.60
2018-06-12T10:55:43.866Z,61.10
2018-06-12T10:58:15.128Z,60.60
2018-06-12T11:00:44.527Z,60.70
2018-06-12T11:03:13.086Z,60.40
2018-06-12T11:05:41.715Z,60.40
2018-06-12T11:08:10.341Z,60.70
2018-06-12T11:10:38.935Z,60.60
2018-06-12T11:13:10.100Z,60.30
2018-06-12T11:15:38.735Z,60.40
2018-06-12T11:18:08.978Z,60.10
2018-06-12T11:20:37.762Z,59.70
2018-06-12T11:23:07.246Z,59.90
2018-06-12T11:25:35.980Z,59.60
2018-06-12T11:28:04.713Z,59.70
2018-06-12T11:30:34.185Z,59.30
2018-06-12T11:33:03.139Z,58.80
2018-06-12T11:35:31.614Z,57.90
2018-06-12T11:38:00.274Z,57.70
2018-06-12T11:40:28.783Z,57.70
2018-06-12T11:42:57.343Z,57.10
2018-06-12T11:45:25.826Z,56.30
2018-06-12T11:47:54.365Z,56.40
2018-06-12T11:50:23.472Z,56.20
2018-06-12T11:52:52.051Z,55.60
2018-06-12T11:55:23.954Z,56.00
2018-06-12T11:57:53.465Z,56.00
2018-06-12T12:00:21.986Z,56.00
2018-06-12T12:02:50.526Z,55.60
2018-06-12T12:05:19.239Z,56.00
2018-06-12T12:07:47.692Z,55.40
2018-06-12T12:10:16.194Z,55.20
2018-06-12T12:12:44.656Z,55.60
2018-06-12T12:15:13.179Z,54.00
2018-06-12T12:17:41.690Z,54.60
2018-06-12T12:20:10.180Z,54.10
2018-06-12T12:22:38.822Z,53.70
2018-06-12T12:25:07.368Z,53.40
2018-06-12T12:27:35.855Z,54.20
2018-06-12T12:30:05.028Z,52.50
2018-06-12T12:32:33.494Z,52.40
2018-06-12T12:35:01.982Z,52.50
2018-06-12T12:37:30.473Z,52.20
2018-06-12T12:39:58.953Z,53.80
2018-06-12T12:42:27.568Z,52.10
2018-06-12T12:44:56.130Z,53.90
2018-06-12T12:47:24.622Z,53.20
2018-06-12T12:49:53.183Z,53.40
2018-06-12T12:52:21.727Z,53.30
2018-06-12T12:54:50.232Z,52.90
2018-06-12T12:57:18.722Z,52.40
2018-06-12T12:59:47.292Z,52.70
2018-06-12T13:02:15.764Z,52.40
2018-06-12T13:04:44.309Z,51.30
2018-06-12T13:07:12.905Z,51.30
2018-06-12T13:09:41.407Z,51.40
2018-06-12T13:12:09.982Z,51.70
2018-06-12T13:14:39.474Z,51.60
2018-06-12T13:17:07.994Z,50.10
2018-06-12T13:19:36.545Z,50.00
2018-06-12T13:22:05.139Z,50.00
2018-06-12T13:24:33.679Z,50.10
2018-06-12T13:27:02.216Z,51.50
2018-06-12T13:29:30.735Z,51.50
2018-06-12T13:31:59.202Z,51.70
2018-06-12T13:34:27.733Z,51.00
2018-06-12T13:36:56.199Z,50.40
2018-06-12T13:39:24.704Z,48.90
2018-06-12T13:41:53.183Z,47.00
2018-06-12T13:44:21.710Z,48.20
2018-06-12T13:46:50.182Z,46.40
2018-06-12T13:49:18.751Z,45.60
2018-06-12T13:51:47.209Z,44.30
2018-06-12T13:54:15.788Z,44.00
2018-06-12T13:56:44.370Z,43.70
2018-06-12T13:59:12.901Z,42.50
2018-06-12T14:01:41.565Z,43.20
2018-06-12T14:04:10.087Z,43.40
2018-06-12T14:06:38.562Z,43.90
2018-06-12T14:09:08.624Z,43.20
2018-06-12T14:11:37.099Z,43.60
2018-06-12T14:14:05.620Z,43.20
2018-06-12T14:16:34.193Z,42.10
2018-06-12T14:19:02.707Z,39.50
2018-06-12T14:21:31.289Z,38.30
2018-06-12T14:23:59.819Z,35.80
2018-06-12T14:26:28.360Z,33.60
2018-06-12T14:28:56.837Z,31.40
2018-06-12T14:31:25.359Z,31.10
2018-06-12T14:33:54.191Z,32.50
2018-06-12T14:36:22.766Z,30.20
2018-06-12T14:38:51.268Z,30.40
2018-06-12T14:41:19.755Z,29.60
2018-06-12T14:43:48.246Z,29.40
2018-06-12T14:46:18.730Z,28.70
2018-06-12T14:48:47.244Z,28.60
2018-06-12T14:51:15.699Z,27.50
2018-06-12T14:53:44.460Z,26.60
2018-06-12T14:56:12.954Z,24.00
2018-06-12T14:58:41.498Z,24.30
2018-06-12T15:01:10.039Z,24.30
2018-06-12T15:03:38.559Z,24.40
2018-06-12T15:06:07.091Z,22.20
2018-06-12T15:08:35.610Z,24.10
2018-06-12T15:11:04.126Z,23.60
2018-06-12T15:13:32.652Z,23.20
2018-06-12T15:16:01.194Z,24.00
2018-06-12T15:18:29.801Z,25.90
2018-06-12T15:20:58.306Z,24.90
2018-06-12T15:23:27.067Z,26.50
2018-06-12T15:25:55.729Z,25.30
2018-06-12T15:28:24.332Z,24.30
2018-06-12T15:30:52.929Z,25.30
2018-06-12T15:33:21.464Z,28.10
2018-06-12T15:35:49.962Z,25.90
2018-06-12T15:40:46.656Z,29.80
2018-06-12T15:43:15.174Z,30.10
2018-06-12T15:45:43.618Z,29.50
2018-06-12T15:48:12.379Z,31.10
2018-06-12T15:50:40.939Z,28.80
2018-06-12T15:53:09.503Z,26.40
2018-06-12T15:55:38.042Z,25.00
2018-06-12T16:00:34.889Z,22.20
2018-06-12T16:03:04.184Z,25.90
2018-06-12T16:05:32.903Z,25.00
2018-06-12T16:08:03.074Z,26.80
2018-06-12T16:10:34.799Z,25.90
2018-06-12T16:13:04.493Z,24.50
2018-06-12T16:15:34.101Z,22.60
2018-06-12T16:18:03.436Z,21.20
2018-06-12T16:20:32.049Z,21.50
2018-06-12T16:23:01.365Z,20.00
2018-06-12T16:25:29.979Z,22.50
2018-06-12T16:27:58.537Z,23.80
2018-06-12T16:30:27.519Z,28.30
2018-06-12T16:32:56.085Z,27.80
2018-06-12T16:35:24.696Z,29.40
2018-06-12T16:37:53.309Z,30.00
2018-06-12T16:40:21.942Z,30.70
2018-06-12T16:42:50.470Z,32.20
2018-06-12T16:45:18.989Z,33.20
2018-06-12T16:47:47.563Z,33.60
2018-06-12T16:50:19.780Z,34.20
2018-06-12T16:52:49.698Z,36.20
2018-06-12T16:55:18.187Z,35.60
2018-06-12T16:57:46.712Z,35.90
2018-06-12T17:00:15.257Z,36.50
2018-06-12T17:02:43.783Z,37.70
2018-06-12T17:05:12.408Z,37.60
2018-06-12T17:07:40.952Z,37.40
2018-06-12T17:10:09.482Z,37.20
2018-06-12T17:12:37.993Z,37.60
2018-06-12T17:15:06.483Z,38.40
2018-06-12T17:17:35.080Z,38.40
2018-06-12T17:20:03.636Z,39.00
2018-06-12T17:22:32.223Z,40.60
2018-06-12T17:25:00.720Z,40.70
2018-06-12T17:27:30.145Z,41.40
2018-06-12T17:29:58.645Z,41.80
2018-06-12T17:32:27.171Z,42.00
2018-06-12T17:34:55.715Z,42.40
2018-06-12T17:37:24.243Z,42.70
2018-06-12T17:39:52.752Z,42.60
2018-06-12T17:44:57.111Z,43.30
2018-06-12T17:47:25.688Z,43.60
2018-06-12T17:49:54.810Z,44.00
2018-06-12T17:52:23.584Z,44.30
2018-06-12T17:54:52.102Z,44.80
2018-06-12T17:57:20.668Z,45.00
2018-06-12T17:59:49.131Z,45.60
2018-06-12T18:02:17.739Z,45.80
2018-06-12T18:04:46.395Z,46.00
2018-06-12T18:07:14.989Z,46.10
2018-06-12T18:09:43.510Z,46.50
2018-06-12T18:12:12.020Z,46.40
2018-06-12T18:14:40.570Z,46.90
2018-06-12T18:17:09.192Z,47.20
2018-06-12T18:19:39.243Z,48.10
2018-06-12T18:22:07.882Z,48.00
2018-06-12T18:24:36.533Z,47.90
2018-06-12T18:27:05.044Z,47.80
2018-06-12T18:29:33.576Z,47.80
2018-06-12T18:32:03.289Z,47.70
2018-06-12T18:34:31.771Z,47.70
2018-06-12T18:37:00.328Z,47.60
2018-06-12T18:39:28.821Z,47.60
2018-06-12T18:41:57.349Z,48.10
2018-06-12T18:44:25.846Z,48.90
2018-06-12T18:46:54.505Z,49.20
2018-06-12T18:49:22.991Z,49.20
2018-06-12T18:51:51.491Z,49.20
2018-06-12T18:54:20.028Z,48.60
2018-06-12T18:56:48.479Z,49.40
2018-06-12T18:59:17.023Z,49.20
2018-06-12T19:01:45.510Z,49.20
2018-06-12T19:04:14.191Z,49.30
2018-06-12T19:06:43.891Z,49.70
2018-06-12T19:09:12.374Z,49.30
2018-06-12T19:11:40.862Z,49.10
2018-06-12T19:14:10.342Z,49.80
2018-06-12T19:16:38.846Z,49.70
2018-06-12T19:19:07.362Z,50.10
2018-06-12T19:21:35.949Z,50.00
2018-06-12T19:26:33.175Z,50.90
2018-06-12T19:29:01.656Z,51.30
2018-06-12T19:31:30.187Z,51.60
2018-06-12T19:33:58.664Z,51.50
2018-06-12T19:36:27.188Z,52.10
2018-06-12T19:38:55.803Z,52.10
2018-06-12T19:41:24.445Z,52.60
2018-06-12T19:43:52.928Z,52.50
2018-06-12T19:46:21.475Z,52.80
2018-06-12T19:48:50.100Z,53.30
2018-06-12T19:51:18.806Z,53.40
2018-06-12T19:53:47.346Z,53.70
2018-06-12T19:56:15.824Z,53.60
2018-06-12T19:58:44.343Z,53.70
2018-06-12T20:01:13.014Z,53.70
2018-06-12T20:03:41.535Z,53.70
2018-06-12T20:06:10.246Z,53.50
2018-06-12T20:08:38.758Z,53.50
2018-06-12T20:11:07.252Z,53.40
2018-06-12T20:13:36.074Z,54.00
2018-06-12T20:16:04.658Z,54.20
2018-06-12T20:18:33.211Z,54.50
2018-06-12T20:21:01.755Z,53.60
2018-06-12T20:23:30.255Z,54.70
2018-06-12T20:25:58.806Z,54.80
2018-06-12T20:28:27.337Z,54.70
2018-06-12T20:30:55.849Z,55.10
2018-06-12T20:33:24.315Z,55.40
2018-06-12T20:35:52.843Z,55.60
2018-06-12T20:38:21.393Z,55.30
2018-06-12T20:40:49.917Z,56.00
2018-06-12T20:43:18.400Z,56.00
2018-06-12T20:45:47.151Z,56.10
2018-06-12T20:48:15.642Z,55.90
2018-06-12T20:50:44.231Z,56.10
2018-06-12T20:53:12.753Z,56.00
2018-06-12T20:55:41.354Z,56.30
2018-06-12T20:58:09.824Z,56.80
2018-06-12T21:00:38.398Z,56.90
2018-06-12T21:03:06.952Z,57.10
2018-06-12T21:05:35.614Z,57.10
2018-06-12T21:08:04.119Z,56.90
2018-06-12T21:10:32.679Z,57.10
2018-06-12T21:13:01.358Z,57.70
2018-06-12T21:15:29.874Z,57.40
2018-06-12T21:17:58.440Z,57.70
2018-06-12T21:20:26.970Z,57.80
2018-06-12T21:22:55.639Z,57.80
2018-06-12T21:25:24.220Z,57.90
2018-06-12T21:27:52.774Z,58.40
2018-06-12T21:32:49.597Z,58.90
2018-06-12T21:35:19.037Z,58.90
2018-06-12T21:40:15.909Z,59.00
2018-06-12T21:42:46.167Z,58.20
2018-06-12T21:45:14.726Z,57.60
2018-06-12T21:47:43.266Z,58.70
2018-06-12T21:50:11.785Z,57.80
2018-06-12T21:52:40.306Z,57.20
2018-06-12T21:55:08.893Z,57.70
2018-06-12T21:57:37.407Z,58.00
2018-06-12T22:00:07.402Z,57.30
2018-06-12T22:02:36.065Z,57.80
2018-06-12T22:05:05.634Z,56.90
2018-06-12T22:07:34.182Z,58.90
2018-06-12T22:10:02.932Z,58.10
2018-06-12T22:12:34.812Z,58.10
2018-06-12T22:15:03.454Z,57.20
2018-06-12T22:17:31.980Z,58.70
2018-06-12T22:20:00.482Z,57.90
2018-06-12T22:22:29.833Z,58.60
2018-06-12T22:25:03.216Z,58.60
2018-06-12T22:27:32.855Z,57.90
2018-06-12T22:30:01.417Z,58.60
2018-06-12T22:32:29.893Z,58.60
2018-06-12T22:35:03.841Z,58.40
2018-06-12T22:37:32.307Z,58.40
2018-06-12T22:40:00.952Z,58.30
2018-06-12T22:42:29.501Z,58.30
2018-06-12T22:44:59.048Z,58.30
2018-06-12T22:47:27.515Z,58.40
2018-06-12T22:49:56.048Z,58.40
2018-06-12T22:52:24.566Z,58.80
2018-06-12T22:54:54.163Z,58.90
2018-06-12T22:57:22.839Z,58.30
2018-06-12T22:59:51.392Z,58.20
2018-06-12T23:02:19.998Z,58.40
2018-06-12T23:04:48.461Z,59.00
2018-06-12T23:07:17.725Z,58.30
2018-06-12T23:09:46.385Z,58.20
2018-06-12T23:12:14.882Z,58.30
2018-06-12T23:14:44.311Z,58.20
2018-06-12T23:17:12.801Z,58.20
2018-06-12T23:19:52.470Z,58.20
2018-06-12T23:22:21.149Z,58.20
2018-06-12T23:24:50.197Z,58.10
2018-06-12T23:27:18.729Z,58.30
2018-06-12T23:29:47.426Z,58.80
2018-06-12T23:32:18.483Z,58.10
2018-06-12T23:34:47.260Z,59.20
2018-06-12T23:37:20.816Z,59.30
2018-06-12T23:39:49.315Z,59.20
2018-06-12T23:44:56.022Z,59.30
2018-06-12T23:47:24.507Z,59.10
2018-06-12T23:49:55.230Z,59.10
2018-06-12T23:52:26.107Z,59.20
2018-06-12T23:54:54.606Z,58.90
2018-06-12T23:57:25.096Z,59.40
2018-06-12T23:59:57.328Z,59.20
